createdAt,value
2022-09-27T00:00:37.877Z,11.7
2022-09-27T00:05:45.233Z,11.7
2022-09-27T00:10:52.576Z,11.9
2022-09-27T00:15:59.918Z,11.9
2022-09-27T00:21:07.246Z,12
2022-09-27T00:26:14.587Z,11.9
2022-09-27T00:31:21.906Z,11.9
2022-09-27T00:36:29.211Z,11.7
2022-09-27T00:41:36.558Z,11.6
2022-09-27T00:46:43.879Z,11.5
2022-09-27T00:51:51.248Z,11.4
2022-09-27T00:56:58.831Z,11.3
2022-09-27T01:02:06.527Z,11.2
2022-09-27T01:07:14.087Z,11.1
2022-09-27T01:12:21.723Z,10.9
2022-09-27T01:17:29.397Z,10.9
2022-09-27T01:22:37.052Z,10.9
2022-09-27T01:27:44.696Z,10.8
2022-09-27T01:32:52.333Z,10.7
2022-09-27T01:37:59.998Z,10.7
2022-09-27T01:43:07.568Z,10.6
2022-09-27T01:48:15.207Z,10.6
2022-09-27T01:53:22.806Z,10.6
2022-09-27T01:58:30.454Z,10.5
2022-09-27T02:03:38.712Z,10.5
2022-09-27T02:08:45.529Z,10.4
2022-09-27T02:13:52.820Z,10.4
2022-09-27T02:19:00.097Z,10.4
2022-09-27T02:24:07.418Z,10.3
2022-09-27T02:29:14.668Z,10.4
2022-09-27T02:34:21.937Z,10.3
2022-09-27T02:39:29.190Z,10.3
2022-09-27T02:44:36.475Z,10.3
2022-09-27T02:49:43.752Z,10.3
2022-09-27T02:54:51.063Z,10.3
2022-09-27T02:59:58.289Z,10.3
2022-09-27T03:05:05.583Z,10.3
2022-09-27T03:10:12.873Z,10.3
2022-09-27T03:15:20.159Z,10.3
2022-09-27T03:20:27.464Z,10.4
2022-09-27T03:25:34.730Z,10.3
2022-09-27T03:30:42.045Z,10.3
2022-09-27T03:35:49.326Z,10.3
2022-09-27T03:40:56.592Z,10.2
2022-09-27T03:46:03.944Z,10.3
2022-09-27T03:51:11.323Z,10.3
2022-09-27T03:56:18.563Z,10.3
2022-09-27T04:01:25.884Z,10.3
2022-09-27T04:06:33.160Z,10.3
2022-09-27T04:11:40.438Z,10.2
2022-09-27T04:16:47.865Z,10.2
2022-09-27T04:21:55.290Z,10.1
2022-09-27T04:27:02.733Z,10.2
2022-09-27T04:32:10.164Z,10.3
2022-09-27T04:37:17.611Z,10.3
2022-09-27T04:42:24.998Z,10.4
2022-09-27T04:47:32.464Z,10.4
2022-09-27T04:52:39.806Z,10.5
2022-09-27T04:57:47.090Z,10.4
2022-09-27T05:02:54.571Z,10.4
2022-09-27T05:08:01.814Z,10.3
2022-09-27T05:13:09.137Z,10.3
2022-09-27T05:18:16.495Z,10.3
2022-09-27T05:23:24.074Z,10.3
2022-09-27T05:28:31.750Z,10.3
2022-09-27T05:33:39.259Z,10.3
2022-09-27T05:38:46.852Z,10.4
2022-09-27T05:43:54.371Z,10.5
2022-09-27T05:49:01.913Z,10.5
2022-09-27T05:54:09.469Z,10.5
2022-09-27T05:59:17.083Z,10.5
2022-09-27T06:04:24.646Z,10.6
2022-09-27T06:09:32.186Z,10.6
2022-09-27T06:14:39.719Z,10.7
2022-09-27T06:19:47.325Z,10.8
2022-09-27T06:24:54.839Z,10.9
2022-09-27T06:30:03.002Z,10.9
2022-09-27T06:35:11.173Z,11
2022-09-27T06:40:19.313Z,11.1
2022-09-27T06:45:27.482Z,11.2
2022-09-27T06:50:35.627Z,11.3
2022-09-27T06:55:43.794Z,11.3
2022-09-27T07:00:51.882Z,11.4
2022-09-27T07:06:00.014Z,11.4
2022-09-27T07:11:08.151Z,11.6
2022-09-27T07:16:16.290Z,11.7
2022-09-27T07:21:24.400Z,11.7
2022-09-27T07:26:32.509Z,11.8
2022-09-27T07:31:40.597Z,11.9
2022-09-27T07:36:49.702Z,12.1
2022-09-27T07:41:58.761Z,11.8
2022-09-27T07:47:05.836Z,11.9
2022-09-27T07:52:12.795Z,12.1
2022-09-27T07:57:19.949Z,12.6
2022-09-27T08:02:26.759Z,12.6
2022-09-27T08:07:33.718Z,12.6
2022-09-27T08:12:40.676Z,12.8
2022-09-27T08:17:47.669Z,13.1
2022-09-27T08:22:54.568Z,12.7
2022-09-27T08:28:01.516Z,12.5
2022-09-27T08:33:08.440Z,12.4
2022-09-27T08:38:15.466Z,12.3
2022-09-27T08:43:22.315Z,12.3
2022-09-27T08:48:29.311Z,12.7
2022-09-27T08:53:36.277Z,12.7
2022-09-27T08:58:43.398Z,12.9
2022-09-27T09:03:50.192Z,13
2022-09-27T09:08:57.119Z,13.6
2022-09-27T09:14:04.085Z,13.5
2022-09-27T09:19:10.989Z,16.4
2022-09-27T09:24:17.914Z,15.1
2022-09-27T09:29:24.722Z,15.6
2022-09-27T09:34:31.560Z,16.5
2022-09-27T09:39:38.389Z,14.4
2022-09-27T09:44:45.200Z,12.7
2022-09-27T09:49:52.086Z,11.3
2022-09-27T09:54:59.087Z,11.1
2022-09-27T10:00:06.196Z,11
2022-09-27T10:05:13.389Z,11.1
2022-09-27T10:10:20.576Z,11.1
2022-09-27T10:15:27.833Z,11.1
2022-09-27T10:20:35.064Z,11.2
2022-09-27T10:25:42.275Z,11.3
2022-09-27T10:30:49.491Z,11.4
2022-09-27T10:35:56.765Z,11.1
2022-09-27T10:41:03.880Z,12.1
2022-09-27T10:46:11.044Z,12.8
2022-09-27T10:51:18.160Z,12.4
2022-09-27T10:56:25.277Z,12.9
2022-09-27T11:01:32.471Z,13.1
2022-09-27T11:06:39.803Z,12.9
2022-09-27T11:11:46.925Z,14.1
2022-09-27T11:16:54.152Z,13.7
2022-09-27T11:22:01.330Z,12.5
2022-09-27T11:27:08.558Z,12.1
2022-09-27T11:32:15.764Z,12.1
2022-09-27T11:37:22.970Z,11.9
2022-09-27T11:42:30.184Z,11.4
2022-09-27T11:47:37.428Z,11.2
2022-09-27T11:52:44.682Z,11.5
2022-09-27T11:57:51.930Z,11.8
2022-09-27T12:02:59.203Z,11.4
2022-09-27T12:08:06.753Z,11.5
2022-09-27T12:13:14.292Z,11.7
2022-09-27T12:18:21.811Z,11.6
2022-09-27T12:23:29.321Z,11.5
2022-09-27T12:28:37.002Z,12.5
2022-09-27T12:33:44.588Z,12.3
2022-09-27T12:38:52.015Z,12.4
2022-09-27T12:43:59.443Z,12.1
2022-09-27T12:49:06.850Z,12.2
2022-09-27T12:54:14.486Z,11.9
2022-09-27T13:04:29.557Z,13.7
2022-09-27T13:09:36.891Z,12.8
2022-09-27T13:14:45.182Z,12.3
2022-09-27T13:19:51.780Z,12.1
2022-09-27T13:24:58.784Z,12.4
2022-09-27T13:30:05.775Z,12.9
2022-09-27T13:35:12.750Z,13.9
2022-09-27T13:40:19.728Z,13.8
2022-09-27T13:45:26.711Z,13.7
2022-09-27T13:50:33.650Z,13.2
2022-09-27T13:55:40.621Z,13
2022-09-27T14:00:47.546Z,13
2022-09-27T14:05:54.518Z,13.5
2022-09-27T14:11:01.460Z,13.5
2022-09-27T14:16:08.352Z,13.1
2022-09-27T14:21:15.349Z,14
2022-09-27T14:26:22.238Z,13.2
2022-09-27T14:31:29.204Z,12.9
2022-09-27T14:36:36.102Z,12.8
2022-09-27T14:41:45.139Z,13
2022-09-27T14:46:49.966Z,12.6
2022-09-27T14:51:56.912Z,14.2
2022-09-27T14:57:03.861Z,14.7
2022-09-27T15:02:10.659Z,13.6
2022-09-27T15:07:17.569Z,13.5
2022-09-27T15:12:24.420Z,15.1
2022-09-27T15:17:31.252Z,15.6
2022-09-27T15:22:38.018Z,14.8
2022-09-27T15:27:44.779Z,13.5
2022-09-27T15:32:51.879Z,15.1
2022-09-27T15:43:05.688Z,12.8
2022-09-27T15:48:12.614Z,12.7
2022-09-27T15:53:19.650Z,12.2
2022-09-27T15:58:26.704Z,12.1
2022-09-27T16:03:33.775Z,12.2
2022-09-27T16:08:40.890Z,11.9
2022-09-27T16:13:47.944Z,11.9
2022-09-27T16:18:55.074Z,11.7
2022-09-27T16:24:02.195Z,11.6
2022-09-27T16:29:09.201Z,11.6
2022-09-27T16:39:23.880Z,11.2
2022-09-27T16:44:31.087Z,11.1
2022-09-27T16:49:38.433Z,11
2022-09-27T16:54:45.820Z,10.9
2022-09-27T16:59:53.261Z,10.7
2022-09-27T17:05:00.721Z,10.4
2022-09-27T17:10:07.988Z,10.3
2022-09-27T17:15:15.458Z,10
2022-09-27T17:20:22.789Z,9.8
2022-09-27T17:25:30.291Z,9.8
2022-09-27T17:30:37.621Z,9.5
2022-09-27T17:35:45.035Z,9.4
2022-09-27T17:40:52.772Z,9.5
2022-09-27T17:46:00.642Z,9.4
2022-09-27T17:51:08.352Z,9.2
2022-09-27T17:56:16.142Z,9
2022-09-27T18:01:23.840Z,8.7
2022-09-27T18:06:31.736Z,8.5
2022-09-27T18:11:39.494Z,8.4
2022-09-27T18:16:47.202Z,8.4
2022-09-27T18:21:55.018Z,8.5
2022-09-27T18:27:02.824Z,8.6
2022-09-27T18:32:10.561Z,8.5
2022-09-27T18:37:18.499Z,8.4
2022-09-27T18:42:26.253Z,8.7
2022-09-27T18:47:34.592Z,8.8
2022-09-27T18:52:41.583Z,8.5
2022-09-27T18:57:48.995Z,8.8
2022-09-27T19:08:03.956Z,8.8
2022-09-27T19:13:11.218Z,8.6
2022-09-27T19:18:18.633Z,8.6
2022-09-27T19:23:26.155Z,8.5
2022-09-27T19:28:33.432Z,8.7
2022-09-27T19:33:40.939Z,8.7
2022-09-27T19:38:48.308Z,8.7
2022-09-27T19:43:55.627Z,8.8
2022-09-27T19:49:03.174Z,8.9
2022-09-27T19:54:10.441Z,8.8
2022-09-27T19:59:17.784Z,8.6
2022-09-27T20:04:25.204Z,8.6
2022-09-27T20:09:32.647Z,8.7
2022-09-27T20:14:39.983Z,8.6
2022-09-27T20:19:47.392Z,8.7
2022-09-27T20:24:54.796Z,8.6
2022-09-27T20:30:02.211Z,8.6
2022-09-27T20:35:09.645Z,8.6
2022-09-27T20:40:17.073Z,8.5
2022-09-27T20:45:24.489Z,8.4
2022-09-27T20:50:31.905Z,8.3
2022-09-27T20:55:39.311Z,8.3
2022-09-27T21:00:46.889Z,8.3
2022-09-27T21:05:54.431Z,8.2
2022-09-27T21:11:01.950Z,8.2
2022-09-27T21:16:09.490Z,8.3
2022-09-27T21:21:17.030Z,8.3
2022-09-27T21:26:24.554Z,8.4
2022-09-27T21:31:32.070Z,8.3
2022-09-27T21:36:39.617Z,8.3
2022-09-27T21:41:47.154Z,8.1
2022-09-27T21:46:54.673Z,8
2022-09-27T21:52:02.222Z,8
2022-09-27T21:57:09.766Z,7.9
2022-09-27T22:02:17.345Z,7.8
2022-09-27T22:07:25.165Z,7.7
2022-09-27T22:12:32.951Z,7.5
2022-09-27T22:17:40.755Z,7.4
2022-09-27T22:22:48.546Z,7.4
2022-09-27T22:27:56.325Z,7.3
2022-09-27T22:33:04.126Z,7.5
2022-09-27T22:38:11.917Z,7.7
2022-09-27T22:43:19.720Z,7.7
2022-09-27T22:48:27.515Z,7.6
2022-09-27T22:53:35.284Z,7.5
2022-09-27T22:58:43.105Z,7.6
2022-09-27T23:03:50.905Z,7.6
2022-09-27T23:08:58.680Z,7.5
2022-09-27T23:14:07.115Z,7.7
2022-09-27T23:19:14.124Z,7.8
2022-09-27T23:24:21.597Z,7.8
2022-09-27T23:29:29.092Z,7.7
2022-09-27T23:34:36.638Z,7.9
2022-09-27T23:39:44.044Z,7.9
2022-09-27T23:44:51.486Z,7.9
2022-09-27T23:49:58.952Z,8
2022-09-27T23:55:06.397Z,8
